SESA/SNC METAR and TAF weather

Enter ICAO airport designator
Station Type Date Time Source
SESA METAR 2024/04/18 00:00 UTC NOAA

SESA 180000Z 22007KT 9999 FEW010 SCT100 27/24 Q1009 RMK A2982


Station Type Date Time Source
SESA Decoded METAR 2024/04/18 00:00 UTC NOAA

Salinas / General Ulpiano Paez, Ecuador (SESA) 02-12S 080-59W 8M
Apr 17, 2024 - 08:00 PM EDT / 2024.04.18 0000 UTC
Wind: from the SW (220 degrees) at 8 MPH (7 KT):0
Visibility: greater than 7 mile(s):0
Sky conditions: partly cloudy
Temperature: 80 F (27 C)
Dew Point: 75 F (24 C)
Relative Humidity: 83%
Pressure (altimeter): 29.80 in. Hg (1009 hPa)
ob: SESA 180000Z 22007KT 9999 FEW010 SCT100 27/24 Q1009 RMK A2982
cycle: 0

Station Type Date Time Source
SESA TAF UTC NOAA

Error!

Example: see airport list